createdAt,value
2018-10-12T00:00:43.950Z,14.70
2018-10-12T00:03:12.856Z,14.80
2018-10-12T00:05:41.526Z,14.80
2018-10-12T00:08:09.762Z,14.80
2018-10-12T00:10:37.972Z,14.80
2018-10-12T00:13:06.618Z,14.70
2018-10-12T00:15:34.830Z,14.70
2018-10-12T00:18:03.017Z,14.70
2018-10-12T00:20:31.216Z,14.70
2018-10-12T00:22:59.479Z,14.70
2018-10-12T00:25:27.691Z,14.70
2018-10-12T00:27:55.913Z,14.70
2018-10-12T00:30:24.082Z,14.70
2018-10-12T00:32:52.490Z,14.70
2018-10-12T00:35:20.643Z,14.60
2018-10-12T00:37:48.844Z,14.60
2018-10-12T00:40:17.014Z,14.50
2018-10-12T00:42:45.289Z,14.40
2018-10-12T00:45:13.485Z,14.40
2018-10-12T00:47:41.671Z,14.30
2018-10-12T00:50:09.867Z,14.30
2018-10-12T00:52:38.053Z,14.30
2018-10-12T00:55:06.277Z,14.30
2018-10-12T00:57:34.476Z,14.30
2018-10-12T01:00:02.670Z,14.20
2018-10-12T01:02:30.890Z,14.20
2018-10-12T01:04:59.084Z,14.20
2018-10-12T01:07:27.287Z,14.20
2018-10-12T01:09:55.473Z,14.20
2018-10-12T01:12:30.714Z,14.20
2018-10-12T01:14:59.339Z,14.20
2018-10-12T01:17:28.021Z,14.20
2018-10-12T01:19:56.927Z,14.20
2018-10-12T01:22:26.021Z,14.10
2018-10-12T01:24:54.446Z,14.10
2018-10-12T01:27:22.631Z,14.00
2018-10-12T01:29:51.090Z,14.00
2018-10-12T01:32:24.591Z,14.00
2018-10-12T01:34:53.228Z,13.90
2018-10-12T01:37:21.419Z,13.90
2018-10-12T01:39:49.608Z,13.80
2018-10-12T01:42:17.794Z,13.80
2018-10-12T01:44:46.034Z,13.80
2018-10-12T01:47:14.216Z,13.80
2018-10-12T01:49:42.598Z,13.80
2018-10-12T01:52:11.947Z,13.80
2018-10-12T01:54:40.423Z,13.80
2018-10-12T01:57:09.135Z,13.80
2018-10-12T01:59:37.342Z,13.80
2018-10-12T02:02:06.205Z,13.80
2018-10-12T02:04:34.489Z,13.80
2018-10-12T02:07:03.273Z,13.70
2018-10-12T02:09:31.481Z,13.70
2018-10-12T02:12:00.335Z,13.70
2018-10-12T02:14:29.337Z,13.70
2018-10-12T02:16:57.547Z,13.70
2018-10-12T02:19:25.729Z,13.70
2018-10-12T02:21:53.913Z,13.70
2018-10-12T02:24:22.141Z,13.60
2018-10-12T02:26:50.329Z,13.60
2018-10-12T02:29:18.512Z,13.60
2018-10-12T02:31:46.693Z,13.60
2018-10-12T02:34:14.921Z,13.60
2018-10-12T02:36:43.104Z,13.60
2018-10-12T02:39:14.608Z,13.60
2018-10-12T02:41:42.817Z,13.50
2018-10-12T02:44:11.576Z,13.50
2018-10-12T02:46:39.763Z,13.50
2018-10-12T02:49:08.133Z,13.50
2018-10-12T02:51:36.507Z,13.40
2018-10-12T02:54:04.744Z,13.40
2018-10-12T02:56:32.943Z,13.40
2018-10-12T02:59:01.198Z,13.40
2018-10-12T03:01:29.379Z,13.40
2018-10-12T03:03:57.608Z,13.30
2018-10-12T03:06:25.792Z,13.30
2018-10-12T03:08:53.998Z,13.20
2018-10-12T03:11:22.204Z,13.10
2018-10-12T03:13:50.429Z,13.10
2018-10-12T03:16:18.917Z,13.00
2018-10-12T03:18:47.118Z,13.00
2018-10-12T03:21:15.335Z,12.90
2018-10-12T03:23:43.540Z,12.90
2018-10-12T03:26:11.734Z,12.90
2018-10-12T03:28:39.949Z,12.90
2018-10-12T03:31:08.523Z,12.90
2018-10-12T03:33:36.725Z,12.90
2018-10-12T03:36:05.406Z,12.80
2018-10-12T03:38:33.631Z,12.80
2018-10-12T03:41:01.844Z,12.80
2018-10-12T03:43:30.044Z,12.80
2018-10-12T03:45:58.243Z,12.90
2018-10-12T03:48:26.453Z,12.90
2018-10-12T03:50:54.624Z,13.00
2018-10-12T03:53:22.835Z,13.00
2018-10-12T03:55:51.028Z,13.10
2018-10-12T03:58:19.319Z,13.10
2018-10-12T04:00:47.497Z,13.10
2018-10-12T04:03:15.698Z,13.00
2018-10-12T04:05:43.898Z,12.90
2018-10-12T04:08:12.173Z,12.90
2018-10-12T04:10:40.593Z,12.80
2018-10-12T04:13:08.770Z,12.70
2018-10-12T04:15:36.998Z,12.70
2018-10-12T04:18:05.174Z,12.70
2018-10-12T04:20:33.642Z,12.70
2018-10-12T04:23:01.888Z,12.70
2018-10-12T04:25:30.089Z,12.70
2018-10-12T04:27:58.293Z,12.70
2018-10-12T04:30:26.489Z,12.60
2018-10-12T04:32:54.996Z,12.60
2018-10-12T04:35:23.193Z,12.60
2018-10-12T04:37:51.439Z,12.60
2018-10-12T04:40:31.002Z,12.60
2018-10-12T04:42:59.238Z,12.60
2018-10-12T04:45:27.457Z,12.60
2018-10-12T04:47:55.685Z,12.60
2018-10-12T04:50:23.896Z,12.70
2018-10-12T04:52:52.295Z,12.70
2018-10-12T04:55:20.628Z,12.70
2018-10-12T04:57:48.836Z,12.80
2018-10-12T05:00:17.007Z,12.80
2018-10-12T05:02:45.279Z,12.90
2018-10-12T05:05:13.513Z,13.00
2018-10-12T05:07:41.759Z,13.00
2018-10-12T05:10:09.913Z,13.10
2018-10-12T05:12:38.133Z,13.10
2018-10-12T05:15:06.491Z,13.10
2018-10-12T05:17:34.676Z,13.10
2018-10-12T05:20:02.877Z,13.10
2018-10-12T05:22:31.055Z,13.10
2018-10-12T05:24:59.239Z,13.20
2018-10-12T05:27:27.466Z,13.20
2018-10-12T05:29:55.671Z,13.20
2018-10-12T05:32:23.871Z,13.20
2018-10-12T05:34:52.067Z,13.30
2018-10-12T05:37:20.272Z,13.30
2018-10-12T05:39:48.501Z,13.30
2018-10-12T05:42:16.753Z,13.40
2018-10-12T05:44:44.952Z,13.40
2018-10-12T05:47:13.149Z,13.40
2018-10-12T05:49:52.452Z,13.40
2018-10-12T05:52:20.635Z,13.40
2018-10-12T05:54:48.829Z,13.20
2018-10-12T05:57:17.043Z,13.20
2018-10-12T05:59:45.245Z,13.10
2018-10-12T06:02:13.479Z,13.10
2018-10-12T06:04:41.695Z,13.00
2018-10-12T06:07:09.943Z,13.00
2018-10-12T06:09:38.219Z,13.00
2018-10-12T06:12:06.339Z,13.00
2018-10-12T06:14:34.571Z,13.00
2018-10-12T06:17:02.783Z,13.00
2018-10-12T06:19:31.239Z,13.00
2018-10-12T06:21:59.451Z,13.10
2018-10-12T06:24:27.733Z,13.10
2018-10-12T06:26:56.063Z,13.10
2018-10-12T06:29:24.220Z,13.10
2018-10-12T06:31:52.415Z,13.10
2018-10-12T06:34:20.617Z,13.10
2018-10-12T06:36:48.829Z,13.10
2018-10-12T06:39:17.045Z,13.10
2018-10-12T06:41:45.618Z,13.10
2018-10-12T06:44:13.704Z,13.10
2018-10-12T06:46:42.048Z,13.10
2018-10-12T06:49:10.088Z,13.10
2018-10-12T06:51:38.286Z,13.10
2018-10-12T06:54:06.508Z,13.10
2018-10-12T06:56:34.686Z,13.30
2018-10-12T06:59:03.132Z,13.70
2018-10-12T07:01:31.620Z,14.00
2018-10-12T07:04:00.079Z,14.70
2018-10-12T07:06:28.679Z,15.50
2018-10-12T07:08:56.847Z,16.40
2018-10-12T07:11:25.043Z,17.10
2018-10-12T07:13:53.313Z,17.70
2018-10-12T07:16:21.467Z,18.20
2018-10-12T07:18:50.181Z,18.60
2018-10-12T07:21:18.381Z,19.10
2018-10-12T07:23:46.579Z,19.60
2018-10-12T07:26:14.783Z,20.10
2018-10-12T07:28:42.995Z,20.50
2018-10-12T07:31:11.184Z,20.80
2018-10-12T07:33:39.467Z,21.30
2018-10-12T07:36:07.661Z,21.70
2018-10-12T07:38:35.869Z,22.00
2018-10-12T07:41:04.064Z,22.20
2018-10-12T07:43:32.259Z,22.30
2018-10-12T07:46:00.451Z,22.40
2018-10-12T07:48:28.637Z,22.50
2018-10-12T07:50:56.849Z,22.50
2018-10-12T07:53:25.147Z,22.80
2018-10-12T07:55:53.227Z,23.40
2018-10-12T07:58:21.413Z,24.00
2018-10-12T08:00:49.850Z,24.30
2018-10-12T08:03:17.812Z,24.80
2018-10-12T08:05:46.013Z,25.20
2018-10-12T08:08:14.216Z,25.60
2018-10-12T08:10:42.415Z,25.70
2018-10-12T08:13:10.614Z,25.80
2018-10-12T08:15:38.827Z,25.90
2018-10-12T08:18:07.263Z,26.20
2018-10-12T08:20:35.456Z,26.70
2018-10-12T08:23:03.722Z,26.90
2018-10-12T08:25:31.959Z,27.20
2018-10-12T08:28:00.134Z,27.60
2018-10-12T08:30:28.346Z,27.90
2018-10-12T08:32:56.626Z,28.20
2018-10-12T08:35:24.825Z,28.40
2018-10-12T08:37:53.013Z,28.70
2018-10-12T08:40:21.192Z,28.90
2018-10-12T08:42:49.486Z,29.20
2018-10-12T08:45:17.686Z,29.30
2018-10-12T08:47:45.928Z,29.30
2018-10-12T08:50:14.121Z,29.50
2018-10-12T08:52:42.301Z,29.50
2018-10-12T08:55:10.514Z,29.70
2018-10-12T08:57:38.686Z,29.90
2018-10-12T09:00:06.912Z,30.20
2018-10-12T09:02:35.114Z,30.30
2018-10-12T09:05:03.326Z,30.60
2018-10-12T09:07:31.508Z,30.80
2018-10-12T09:09:59.749Z,31.10
2018-10-12T09:12:27.874Z,31.50
2018-10-12T09:14:56.075Z,32.10
2018-10-12T09:17:24.488Z,32.40
2018-10-12T09:19:52.714Z,32.50
2018-10-12T09:22:21.140Z,32.70
2018-10-12T09:24:49.330Z,33.10
2018-10-12T09:27:17.534Z,33.20
2018-10-12T09:29:45.704Z,33.00
2018-10-12T09:32:13.902Z,33.20
2018-10-12T09:34:42.094Z,32.80
2018-10-12T09:37:10.427Z,32.70
2018-10-12T09:39:38.470Z,32.90
2018-10-12T09:42:06.761Z,33.20
2018-10-12T09:44:34.940Z,33.70
2018-10-12T09:47:03.362Z,34.10
2018-10-12T09:49:31.560Z,34.40
2018-10-12T09:51:59.741Z,34.70
2018-10-12T09:54:27.938Z,34.50
2018-10-12T09:57:01.452Z,34.20
2018-10-12T09:59:29.645Z,33.80
2018-10-12T10:02:03.335Z,33.10
2018-10-12T10:04:34.360Z,32.60
2018-10-12T10:07:03.722Z,32.50
2018-10-12T10:09:32.195Z,32.90
2018-10-12T10:12:00.392Z,32.90
2018-10-12T10:14:29.170Z,33.20
2018-10-12T10:16:57.390Z,33.00
2018-10-12T10:19:25.636Z,32.70
2018-10-12T10:21:53.771Z,32.90
2018-10-12T10:24:21.974Z,33.50
2018-10-12T10:26:50.173Z,33.50
2018-10-12T10:29:18.422Z,33.70
2018-10-12T10:31:46.619Z,34.00
2018-10-12T10:34:14.843Z,34.20
2018-10-12T10:36:43.029Z,34.00
2018-10-12T10:39:12.234Z,34.20
2018-10-12T10:41:40.687Z,34.50
2018-10-12T10:44:08.861Z,34.50
2018-10-12T10:46:37.060Z,34.60
2018-10-12T10:49:05.489Z,34.20
2018-10-12T10:51:33.677Z,34.00
2018-10-12T10:54:01.911Z,34.20
2018-10-12T10:56:30.107Z,33.90
2018-10-12T10:58:58.333Z,33.80
2018-10-12T11:01:26.508Z,33.90
2018-10-12T11:03:54.715Z,33.60
2018-10-12T11:06:22.974Z,33.50
2018-10-12T11:08:51.079Z,33.80
2018-10-12T11:11:19.301Z,34.10
2018-10-12T11:13:47.499Z,34.40
2018-10-12T11:16:15.706Z,34.40
2018-10-12T11:18:43.916Z,34.00
2018-10-12T11:21:12.101Z,33.90
2018-10-12T11:23:40.311Z,33.80
2018-10-12T11:26:08.507Z,34.30
2018-10-12T11:28:36.687Z,34.90
2018-10-12T11:31:04.869Z,35.60
2018-10-12T11:33:33.121Z,36.00
2018-10-12T11:36:01.323Z,36.20
2018-10-12T11:38:29.583Z,36.20
2018-10-12T11:40:57.693Z,36.10
2018-10-12T11:43:29.733Z,35.80
2018-10-12T11:45:58.631Z,35.80
2018-10-12T11:48:26.809Z,36.00
2018-10-12T11:50:55.017Z,35.90
2018-10-12T11:53:23.213Z,35.60
2018-10-12T11:55:51.416Z,35.80
2018-10-12T11:58:19.841Z,35.80
2018-10-12T12:00:48.021Z,35.60
2018-10-12T12:03:16.207Z,35.50
2018-10-12T12:05:44.434Z,34.90
2018-10-12T12:08:12.617Z,35.10
2018-10-12T12:10:41.293Z,35.50
2018-10-12T12:13:09.740Z,36.10
2018-10-12T12:15:38.205Z,36.40
2018-10-12T12:18:06.871Z,36.10
2018-10-12T12:20:35.290Z,35.90
2018-10-12T12:23:03.482Z,36.00
2018-10-12T12:25:31.686Z,36.00
2018-10-12T12:27:59.882Z,35.60
2018-10-12T12:30:28.062Z,35.70
2018-10-12T12:32:56.296Z,36.60
2018-10-12T12:35:24.998Z,37.00
2018-10-12T12:37:52.674Z,37.00
2018-10-12T12:40:20.886Z,37.40
2018-10-12T12:42:49.113Z,37.60
2018-10-12T12:45:17.316Z,37.90
2018-10-12T12:47:45.629Z,37.90
2018-10-12T12:50:13.694Z,37.50
2018-10-12T12:52:41.941Z,37.50
2018-10-12T12:55:10.148Z,37.40
2018-10-12T12:57:38.349Z,37.20
2018-10-12T13:00:06.596Z,37.20
2018-10-12T13:02:34.744Z,37.50
2018-10-12T13:05:02.922Z,37.40
2018-10-12T13:07:31.122Z,37.10
2018-10-12T13:09:59.309Z,36.60
2018-10-12T13:12:27.505Z,36.40
2018-10-12T13:14:55.688Z,36.20
2018-10-12T13:17:23.912Z,36.40
2018-10-12T13:19:52.107Z,36.80
2018-10-12T13:22:20.286Z,37.00
2018-10-12T13:24:48.490Z,37.00
2018-10-12T13:27:16.703Z,37.10
2018-10-12T13:29:44.871Z,36.90
2018-10-12T13:32:13.058Z,36.70
2018-10-12T13:34:41.255Z,36.90
2018-10-12T13:37:09.465Z,36.60
2018-10-12T13:39:37.652Z,36.40
2018-10-12T13:42:06.015Z,36.50
2018-10-12T13:44:34.205Z,36.60
2018-10-12T13:47:02.444Z,36.60
2018-10-12T13:49:30.641Z,36.80
2018-10-12T13:51:58.820Z,37.10
2018-10-12T13:54:27.143Z,36.90
2018-10-12T13:57:01.010Z,36.60
2018-10-12T13:59:30.522Z,36.90
2018-10-12T14:01:59.198Z,37.10
2018-10-12T14:04:28.452Z,37.30
2018-10-12T14:06:56.656Z,37.00
2018-10-12T14:09:25.318Z,36.70
2018-10-12T14:11:53.519Z,36.50
2018-10-12T14:14:21.694Z,36.00
2018-10-12T14:16:50.086Z,35.60
2018-10-12T14:19:18.565Z,35.20
2018-10-12T14:21:46.682Z,34.80
2018-10-12T14:24:14.870Z,34.40
2018-10-12T14:26:43.138Z,34.30
2018-10-12T14:29:11.272Z,34.20
2018-10-12T14:31:39.600Z,34.10
2018-10-12T14:34:07.710Z,33.90
2018-10-12T14:36:35.897Z,33.70
2018-10-12T14:39:05.673Z,33.70
2018-10-12T14:41:33.865Z,33.60
2018-10-12T14:44:02.251Z,33.70
2018-10-12T14:46:30.257Z,33.90
2018-10-12T14:48:58.459Z,33.90
2018-10-12T14:51:26.808Z,33.50
2018-10-12T14:53:54.882Z,32.90
2018-10-12T14:56:23.059Z,32.30
2018-10-12T14:58:51.246Z,31.90
2018-10-12T15:01:19.453Z,31.50
2018-10-12T15:03:47.635Z,30.90
2018-10-12T15:06:16.150Z,30.40
2018-10-12T15:08:44.349Z,30.00
2018-10-12T15:11:12.547Z,29.70
2018-10-12T15:13:40.755Z,29.30
2018-10-12T15:16:08.950Z,29.00
2018-10-12T15:18:37.161Z,28.60
2018-10-12T15:21:06.056Z,28.30
2018-10-12T15:23:34.193Z,28.00
2018-10-12T15:26:02.380Z,27.80
2018-10-12T15:28:30.584Z,27.50
2018-10-12T15:30:58.769Z,27.30
2018-10-12T15:33:26.970Z,27.20
2018-10-12T15:35:55.155Z,27.10
2018-10-12T15:38:23.392Z,26.90
2018-10-12T15:40:51.563Z,26.80
2018-10-12T15:43:19.840Z,26.70
2018-10-12T15:45:47.927Z,26.60
2018-10-12T15:48:16.115Z,26.50
2018-10-12T15:50:44.299Z,26.40
2018-10-12T15:53:12.466Z,26.30
2018-10-12T15:55:40.641Z,26.20
2018-10-12T15:58:08.972Z,26.10
2018-10-12T16:00:37.180Z,26.00
2018-10-12T16:03:05.429Z,25.90
2018-10-12T16:05:34.204Z,25.80
2018-10-12T16:08:02.378Z,25.70
2018-10-12T16:10:30.563Z,25.60
2018-10-12T16:12:58.819Z,25.50
2018-10-12T16:15:27.021Z,25.40
2018-10-12T16:17:55.203Z,25.30
2018-10-12T16:20:23.432Z,25.20
2018-10-12T16:22:51.668Z,25.00
2018-10-12T16:26:23.580Z,24.90
2018-10-12T16:28:51.852Z,24.70
2018-10-12T16:31:20.011Z,24.50
2018-10-12T16:33:48.205Z,24.40
2018-10-12T16:36:16.437Z,24.30
2018-10-12T16:38:44.621Z,24.20
2018-10-12T16:41:12.827Z,24.10
2018-10-12T16:43:41.003Z,24.00
2018-10-12T16:46:09.216Z,23.80
2018-10-12T16:48:37.392Z,23.80
2018-10-12T16:51:05.978Z,23.60
2018-10-12T16:53:34.863Z,23.60
2018-10-12T16:56:03.058Z,23.50
2018-10-12T16:58:31.284Z,23.50
2018-10-12T17:00:59.471Z,23.50
2018-10-12T17:03:27.672Z,23.40
2018-10-12T17:05:56.915Z,23.40
2018-10-12T17:08:25.081Z,23.30
2018-10-12T17:10:53.286Z,23.30
2018-10-12T17:13:21.481Z,23.20
2018-10-12T17:15:49.720Z,23.20
2018-10-12T17:18:17.933Z,23.10
2018-10-12T17:20:46.068Z,23.10
2018-10-12T17:23:14.264Z,23.00
2018-10-12T17:25:42.440Z,23.00
2018-10-12T17:28:10.651Z,22.90
2018-10-12T17:30:38.828Z,22.80
2018-10-12T17:33:07.075Z,22.80
2018-10-12T17:35:35.264Z,22.70
2018-10-12T17:38:03.452Z,22.60
2018-10-12T17:40:31.626Z,22.60
2018-10-12T17:42:59.946Z,22.50
2018-10-12T17:45:28.058Z,22.50
2018-10-12T17:47:56.260Z,22.40
2018-10-12T17:50:24.448Z,22.40
2018-10-12T17:52:52.825Z,22.30
2018-10-12T17:55:21.021Z,22.10
2018-10-12T17:57:49.227Z,22.00
2018-10-12T18:00:17.464Z,21.80
2018-10-12T18:02:45.676Z,21.70
2018-10-12T18:05:13.885Z,21.60
2018-10-12T18:07:42.058Z,21.50
2018-10-12T18:10:11.194Z,21.50
2018-10-12T18:12:39.522Z,21.50
2018-10-12T18:15:10.020Z,21.50
2018-10-12T18:17:38.676Z,21.50
2018-10-12T18:20:07.569Z,21.50
2018-10-12T18:22:35.816Z,21.50
2018-10-12T18:25:04.515Z,21.50
2018-10-12T18:27:32.719Z,21.50
2018-10-12T18:30:00.896Z,21.40
2018-10-12T18:32:29.098Z,21.30
2018-10-12T18:34:57.476Z,21.10
2018-10-12T18:37:25.674Z,21.00
2018-10-12T18:39:54.177Z,20.80
2018-10-12T18:42:22.348Z,20.70
2018-10-12T18:44:50.560Z,20.60
2018-10-12T18:47:18.758Z,20.50
2018-10-12T18:49:46.948Z,20.50
2018-10-12T18:52:15.147Z,20.40
2018-10-12T18:54:43.346Z,20.40
2018-10-12T18:57:11.550Z,20.30
2018-10-12T18:59:39.756Z,20.30
2018-10-12T19:02:07.926Z,20.20
2018-10-12T19:04:36.250Z,20.10
2018-10-12T19:07:04.316Z,20.00
2018-10-12T19:09:32.520Z,19.90
2018-10-12T19:12:00.704Z,19.80
2018-10-12T19:14:29.342Z,19.70
2018-10-12T19:16:57.982Z,19.70
2018-10-12T19:19:26.227Z,19.60
2018-10-12T19:21:54.520Z,19.60
2018-10-12T19:24:22.718Z,19.60
2018-10-12T19:26:50.914Z,19.60
2018-10-12T19:29:19.121Z,19.60
2018-10-12T19:31:47.403Z,19.60
2018-10-12T19:34:16.153Z,19.60
2018-10-12T19:36:44.353Z,19.50
2018-10-12T19:39:12.536Z,19.50
2018-10-12T19:41:40.732Z,19.40
2018-10-12T19:44:09.873Z,19.40
2018-10-12T19:46:38.051Z,19.40
2018-10-12T19:49:06.265Z,19.30
2018-10-12T19:51:34.467Z,19.30
2018-10-12T19:54:02.676Z,19.30
2018-10-12T19:56:30.948Z,19.20
2018-10-12T19:58:59.212Z,19.10
2018-10-12T20:01:27.363Z,19.10
2018-10-12T20:03:55.555Z,19.10
2018-10-12T20:06:23.767Z,19.10
2018-10-12T20:08:51.957Z,19.00
2018-10-12T20:11:20.171Z,19.00
2018-10-12T20:13:48.385Z,18.90
2018-10-12T20:16:16.585Z,18.80
2018-10-12T20:18:44.775Z,18.80
2018-10-12T20:21:12.958Z,18.80
2018-10-12T20:23:41.356Z,18.80
2018-10-12T20:26:09.555Z,18.80
2018-10-12T20:28:37.753Z,18.80
2018-10-12T20:31:06.245Z,18.70
2018-10-12T20:33:34.447Z,18.70
2018-10-12T20:36:02.823Z,18.70
2018-10-12T20:38:31.025Z,18.60
2018-10-12T20:40:59.239Z,18.50
2018-10-12T20:43:27.413Z,18.50
2018-10-12T20:45:55.683Z,18.40
2018-10-12T20:48:23.865Z,18.40
2018-10-12T20:50:52.063Z,18.40
2018-10-12T20:53:20.290Z,18.30
2018-10-12T20:55:48.427Z,18.30
2018-10-12T20:58:17.206Z,18.30
2018-10-12T21:00:46.017Z,18.30
2018-10-12T21:03:14.226Z,18.30
2018-10-12T21:05:42.786Z,18.30
2018-10-12T21:08:10.983Z,18.20
2018-10-12T21:10:39.379Z,18.10
2018-10-12T21:13:07.565Z,18.00
2018-10-12T21:15:35.763Z,18.00
2018-10-12T21:18:04.186Z,17.90
2018-10-12T21:20:32.245Z,17.90
2018-10-12T21:23:00.535Z,17.80
2018-10-12T21:25:28.715Z,17.80
2018-10-12T21:27:56.923Z,17.80
2018-10-12T21:30:25.136Z,17.80
2018-10-12T21:32:53.962Z,17.80
2018-10-12T21:35:22.173Z,17.80
2018-10-12T21:37:50.369Z,17.80
2018-10-12T21:40:18.656Z,17.80
2018-10-12T21:42:46.838Z,17.70
2018-10-12T21:45:15.040Z,17.60
2018-10-12T21:47:43.237Z,17.40
2018-10-12T21:50:11.497Z,17.30
2018-10-12T21:52:39.765Z,17.30
2018-10-12T21:55:07.946Z,17.20
2018-10-12T21:57:36.150Z,17.10
2018-10-12T22:00:05.277Z,17.10
2018-10-12T22:02:33.389Z,17.00
2018-10-12T22:05:01.577Z,17.00
2018-10-12T22:07:29.840Z,16.90
2018-10-12T22:09:57.998Z,16.90
2018-10-12T22:12:26.176Z,16.90
2018-10-12T22:14:54.826Z,16.90
2018-10-12T22:17:23.005Z,16.90
2018-10-12T22:19:51.186Z,16.80
2018-10-12T22:22:19.404Z,16.80
2018-10-12T22:24:47.597Z,16.80
2018-10-12T22:27:15.802Z,16.80
2018-10-12T22:29:44.002Z,16.80
2018-10-12T22:32:12.193Z,16.70
2018-10-12T22:34:40.374Z,16.70
2018-10-12T22:37:08.577Z,16.70
2018-10-12T22:39:36.758Z,16.70
2018-10-12T22:42:04.956Z,16.70
2018-10-12T22:44:33.168Z,16.70
2018-10-12T22:47:01.356Z,16.70
2018-10-12T22:49:29.564Z,16.70
2018-10-12T22:51:57.750Z,16.70
2018-10-12T22:54:25.972Z,16.60
2018-10-12T22:56:54.174Z,16.60
2018-10-12T22:59:22.380Z,16.60
2018-10-12T23:01:50.570Z,16.60
2018-10-12T23:04:18.781Z,16.50
2018-10-12T23:06:46.993Z,16.50
2018-10-12T23:09:15.188Z,16.50
2018-10-12T23:11:43.398Z,16.50
2018-10-12T23:14:11.586Z,16.40
2018-10-12T23:16:39.800Z,16.40
2018-10-12T23:19:08.004Z,16.30
2018-10-12T23:21:36.216Z,16.20
2018-10-12T23:24:04.451Z,16.10
2018-10-12T23:26:32.614Z,16.10
2018-10-12T23:29:00.806Z,16.10
2018-10-12T23:31:28.988Z,16.10
2018-10-12T23:34:06.224Z,16.00
2018-10-12T23:36:34.402Z,16.00
2018-10-12T23:39:02.775Z,16.00
2018-10-12T23:41:30.978Z,16.00
2018-10-12T23:43:59.168Z,15.90
2018-10-12T23:46:27.388Z,15.80
2018-10-12T23:48:55.901Z,15.70
2018-10-12T23:51:24.125Z,15.70
2018-10-12T23:53:52.346Z,15.70
2018-10-12T23:56:20.540Z,15.70
2018-10-12T23:58:48.742Z,15.60
